createdAt,value
2017-08-11T00:00:45.458Z,14.7
2017-08-11T00:01:53.910Z,14.7
2017-08-11T00:03:01.405Z,14.7
2017-08-11T00:04:08.575Z,14.7
2017-08-11T00:05:16.353Z,14.7
2017-08-11T00:06:23.832Z,14.6
2017-08-11T00:07:31.312Z,14.6
2017-08-11T00:08:38.468Z,14.6
2017-08-11T00:09:45.947Z,14.5
2017-08-11T00:10:53.724Z,14.5
2017-08-11T00:12:01.202Z,14.5
2017-08-11T00:13:08.687Z,14.6
2017-08-11T00:14:15.843Z,14.6
2017-08-11T00:15:23.324Z,14.6
2017-08-11T00:16:31.109Z,14.6
2017-08-11T00:17:38.818Z,14.5
2017-08-11T00:18:46.304Z,14.5
2017-08-11T00:19:53.804Z,14.5
2017-08-11T00:21:01.299Z,14.5
2017-08-11T00:22:08.752Z,14.4
2017-08-11T00:23:16.229Z,14.4
2017-08-11T00:24:23.408Z,14.4
2017-08-11T00:25:30.557Z,14.4
2017-08-11T00:26:37.707Z,14.4
2017-08-11T00:27:45.487Z,14.4
2017-08-11T00:28:52.966Z,14.4
2017-08-11T00:30:00.446Z,14.3
2017-08-11T00:31:07.923Z,14.3
2017-08-11T00:32:15.081Z,14.3
2017-08-11T00:33:22.570Z,14.3
2017-08-11T00:34:29.718Z,14.4
2017-08-11T00:35:37.206Z,14.4
2017-08-11T00:36:44.684Z,14.5
2017-08-11T00:37:52.160Z,14.5
2017-08-11T00:39:14.202Z,14.5
2017-08-11T00:40:21.349Z,14.5
2017-08-11T00:41:28.828Z,14.5
2017-08-11T00:42:35.673Z,14.6
2017-08-11T00:43:43.160Z,14.6
2017-08-11T00:44:50.866Z,14.6
2017-08-11T00:45:58.343Z,14.6
2017-08-11T00:47:05.832Z,14.6
2017-08-11T00:48:12.985Z,14.6
2017-08-11T00:49:20.469Z,14.6
2017-08-11T00:50:27.879Z,14.6
2017-08-11T00:51:36.336Z,14.5
2017-08-11T00:52:43.488Z,14.5
2017-08-11T00:53:50.321Z,14.5
2017-08-11T00:54:57.797Z,14.5
2017-08-11T00:56:05.260Z,14.5
2017-08-11T00:57:12.414Z,14.5
2017-08-11T00:58:19.231Z,14.5
2017-08-11T00:59:26.720Z,14.5
2017-08-11T01:00:33.864Z,14.5
2017-08-11T01:01:41.319Z,14.5
2017-08-11T01:02:47.812Z,14.6
2017-08-11T01:03:55.288Z,14.6
2017-08-11T01:05:02.791Z,14.5
2017-08-11T01:06:09.944Z,14.5
2017-08-11T01:07:17.394Z,14.6
2017-08-11T01:08:24.873Z,14.5
2017-08-11T01:09:32.352Z,14.5
2017-08-11T01:10:39.834Z,14.5
2017-08-11T01:11:46.991Z,14.5
2017-08-11T01:12:54.731Z,14.6
2017-08-11T01:14:01.883Z,14.5
2017-08-11T01:15:09.043Z,14.6
2017-08-11T01:16:16.548Z,14.6
2017-08-11T01:17:23.703Z,14.6
2017-08-11T01:18:31.431Z,14.6
2017-08-11T01:19:38.914Z,14.6
2017-08-11T01:20:46.398Z,14.5
2017-08-11T01:21:53.873Z,14.6
2017-08-11T01:23:01.353Z,14.6
2017-08-11T01:24:09.137Z,14.6
2017-08-11T01:25:15.954Z,14.6
2017-08-11T01:26:23.102Z,14.6
2017-08-11T01:27:30.255Z,14.6
2017-08-11T01:28:37.738Z,14.6
2017-08-11T01:29:45.137Z,14.6
2017-08-11T01:30:52.617Z,14.6
2017-08-11T01:32:00.108Z,14.6
2017-08-11T01:33:07.591Z,14.6
2017-08-11T01:34:14.417Z,14.6
2017-08-11T01:35:21.880Z,14.7
2017-08-11T01:36:29.054Z,14.7
2017-08-11T01:37:36.206Z,14.7
2017-08-11T01:38:43.685Z,14.7
2017-08-11T01:39:51.162Z,14.7
2017-08-11T01:40:58.942Z,14.7
2017-08-11T01:42:06.099Z,14.6
2017-08-11T01:43:13.250Z,14.7
2017-08-11T01:44:20.730Z,14.7
2017-08-11T01:45:27.876Z,14.7
2017-08-11T01:46:35.657Z,14.7
2017-08-11T01:47:43.136Z,14.7
2017-08-11T01:48:49.958Z,14.7
2017-08-11T01:49:56.780Z,14.6
2017-08-11T01:51:03.935Z,14.6
2017-08-11T01:52:11.708Z,14.6
2017-08-11T01:53:18.858Z,14.6
2017-08-11T01:54:27.315Z,14.6
2017-08-11T01:55:34.792Z,14.6
2017-08-11T01:56:41.950Z,14.6
2017-08-11T01:57:49.903Z,14.6
2017-08-11T01:58:57.059Z,14.6
2017-08-11T02:00:04.537Z,14.6
2017-08-11T02:01:11.710Z,14.5
2017-08-11T02:02:19.187Z,14.5
2017-08-11T02:03:26.967Z,14.5
2017-08-11T02:04:34.453Z,14.5
2017-08-11T02:05:41.593Z,14.5
2017-08-11T02:06:48.410Z,14.5
2017-08-11T02:07:55.566Z,14.5
2017-08-11T02:09:03.018Z,14.5
2017-08-11T02:10:10.188Z,14.5
2017-08-11T02:11:18.640Z,14.5
2017-08-11T02:12:26.137Z,14.5
2017-08-11T02:13:33.289Z,14.5
2017-08-11T02:14:40.363Z,14.5
2017-08-11T02:15:47.522Z,14.5
2017-08-11T02:16:54.668Z,14.4
2017-08-11T02:18:01.816Z,14.5
2017-08-11T02:19:09.298Z,14.4
2017-08-11T02:20:17.082Z,14.4
2017-08-11T02:21:24.256Z,14.5
2017-08-11T02:22:31.400Z,14.4
2017-08-11T02:23:38.240Z,14.4
2017-08-11T02:24:45.052Z,14.4
2017-08-11T02:25:52.838Z,14.3
2017-08-11T02:26:59.993Z,14.3
2017-08-11T02:28:07.473Z,14.3
2017-08-11T02:29:14.617Z,14.3
2017-08-11T02:30:21.770Z,14.3
2017-08-11T02:31:29.235Z,14.3
2017-08-11T02:32:36.710Z,14.3
2017-08-11T02:33:43.876Z,14.3
2017-08-11T02:34:51.031Z,14.3
2017-08-11T02:35:58.511Z,14.3
2017-08-11T02:37:06.240Z,14.2
2017-08-11T02:38:13.379Z,14.2
2017-08-11T02:39:20.860Z,14.2
2017-08-11T02:40:28.338Z,14.2
2017-08-11T02:41:35.493Z,14.2
2017-08-11T02:42:43.278Z,14.2
2017-08-11T02:43:50.761Z,14.3
2017-08-11T02:44:57.907Z,14.3
2017-08-11T02:46:05.384Z,14.3
2017-08-11T02:47:12.536Z,14.3
2017-08-11T02:48:19.604Z,14.3
2017-08-11T02:49:27.077Z,14.3
2017-08-11T02:50:33.897Z,14.3
2017-08-11T02:51:41.046Z,14.3
2017-08-11T02:52:47.862Z,14.3
2017-08-11T02:53:55.309Z,14.3
2017-08-11T02:55:02.480Z,14.3
2017-08-11T02:56:09.631Z,14.3
2017-08-11T02:57:16.784Z,14.3
2017-08-11T02:58:24.267Z,14.2
2017-08-11T02:59:32.047Z,14.2
2017-08-11T03:00:39.522Z,14.2
2017-08-11T03:01:46.342Z,14.2
2017-08-11T03:02:53.155Z,14.2
2017-08-11T03:04:00.631Z,14.2
2017-08-11T03:05:08.086Z,14.1
2017-08-11T03:06:15.562Z,14.1
2017-08-11T03:07:23.040Z,14.1
2017-08-11T03:08:30.518Z,14.1
2017-08-11T03:09:37.670Z,14.1
2017-08-11T03:10:46.377Z,14.2
2017-08-11T03:11:53.855Z,14.1
2017-08-11T03:13:01.006Z,14.2
2017-08-11T03:14:07.826Z,14.1
2017-08-11T03:15:15.306Z,14.1
2017-08-11T03:16:23.086Z,14.2
2017-08-11T03:17:30.568Z,14.2
2017-08-11T03:18:37.723Z,14.2
2017-08-11T03:19:45.200Z,14.2
2017-08-11T03:20:52.686Z,14.2
2017-08-11T03:22:00.094Z,14.2
2017-08-11T03:23:07.239Z,14.2
2017-08-11T03:24:14.081Z,14.1
2017-08-11T03:25:21.560Z,14.1
2017-08-11T03:26:29.057Z,14.1
2017-08-11T03:27:36.840Z,14.1
2017-08-11T03:28:43.673Z,14.1
2017-08-11T03:29:51.153Z,14
2017-08-11T03:30:57.995Z,14
2017-08-11T03:32:05.476Z,14
2017-08-11T03:33:12.622Z,14.1
2017-08-11T03:34:20.109Z,14.1
2017-08-11T03:35:27.258Z,14.1
2017-08-11T03:36:34.406Z,14.1
2017-08-11T03:37:41.220Z,14.1
2017-08-11T03:38:48.670Z,14.2
2017-08-11T03:39:55.815Z,14.1
2017-08-11T03:41:03.308Z,14.1
2017-08-11T03:42:10.472Z,14.1
2017-08-11T03:43:17.951Z,14.1
2017-08-11T03:44:25.731Z,14.1
2017-08-11T03:45:32.566Z,14.1
2017-08-11T03:46:39.713Z,14.1
2017-08-11T03:47:46.876Z,14.1
2017-08-11T03:48:54.020Z,14.1
2017-08-11T03:50:01.153Z,14.1
2017-08-11T03:51:08.634Z,14.2
2017-08-11T03:52:15.466Z,14.2
2017-08-11T03:53:22.620Z,14.2
2017-08-11T03:54:30.097Z,14.2
2017-08-11T03:55:37.834Z,14.2
2017-08-11T03:56:44.982Z,14.1
2017-08-11T03:57:52.127Z,14.1
2017-08-11T03:58:59.612Z,14.1
2017-08-11T04:00:07.095Z,14.1
2017-08-11T04:01:14.549Z,14.2
2017-08-11T04:02:21.704Z,14.2
2017-08-11T04:03:29.203Z,14.2
2017-08-11T04:04:36.686Z,14.2
2017-08-11T04:05:44.164Z,14.2
2017-08-11T04:06:51.612Z,14.2
2017-08-11T04:07:59.086Z,14.2
2017-08-11T04:09:06.232Z,14.2
2017-08-11T04:10:13.382Z,14.2
2017-08-11T04:11:20.862Z,14.2
2017-08-11T04:12:28.642Z,14.2
2017-08-11T04:13:35.792Z,14.2
2017-08-11T04:14:43.277Z,14.1
2017-08-11T04:15:50.760Z,14.1
2017-08-11T04:16:57.910Z,14.1
2017-08-11T04:18:05.380Z,14.2
2017-08-11T04:19:12.863Z,14.2
2017-08-11T04:20:19.709Z,14.2
2017-08-11T04:21:27.191Z,14.2
2017-08-11T04:22:35.126Z,14.2
2017-08-11T04:23:42.286Z,14.2
2017-08-11T04:24:49.770Z,14.2
2017-08-11T04:25:57.291Z,14.2
2017-08-11T04:27:04.445Z,14.2
2017-08-11T04:28:11.896Z,14.2
2017-08-11T04:29:19.054Z,14.2
2017-08-11T04:30:25.867Z,14.2
2017-08-11T04:31:33.348Z,14.2
2017-08-11T04:32:40.827Z,14.1
2017-08-11T04:33:48.274Z,14.2
2017-08-11T04:34:55.418Z,14.2
2017-08-11T04:36:02.892Z,14.2
2017-08-11T04:37:10.371Z,14.2
2017-08-11T04:38:17.549Z,14.2
2017-08-11T04:39:25.318Z,14.2
2017-08-11T04:40:32.799Z,14.2
2017-08-11T04:41:40.281Z,14.2
2017-08-11T04:42:47.795Z,14.2
2017-08-11T04:43:54.967Z,14.2
2017-08-11T04:45:02.460Z,14.2
2017-08-11T04:46:09.937Z,14.2
2017-08-11T04:47:17.417Z,14.2
2017-08-11T04:48:24.900Z,14.2
2017-08-11T04:49:32.679Z,14.2
2017-08-11T04:50:40.162Z,14.2
2017-08-11T04:51:47.643Z,14.2
2017-08-11T04:52:55.125Z,14.2
2017-08-11T04:54:02.269Z,14.2
2017-08-11T04:55:10.049Z,14.2
2017-08-11T04:56:17.543Z,14.2
2017-08-11T04:57:25.029Z,14.2
2017-08-11T04:58:32.517Z,14.2
2017-08-11T04:59:39.678Z,14.2
2017-08-11T05:00:47.455Z,14.2
2017-08-11T05:01:54.936Z,14.2
2017-08-11T05:03:02.428Z,14.2
2017-08-11T05:04:09.581Z,14.2
2017-08-11T05:05:17.065Z,14.2
2017-08-11T05:06:24.851Z,14.2
2017-08-11T05:07:32.329Z,14.2
2017-08-11T05:08:39.800Z,14.2
2017-08-11T05:09:47.281Z,14.3
2017-08-11T05:10:54.765Z,14.3
2017-08-11T05:12:02.510Z,14.3
2017-08-11T05:13:09.999Z,14.3
2017-08-11T05:14:17.480Z,14.3
2017-08-11T05:15:24.968Z,14.3
2017-08-11T05:16:32.119Z,14.3
2017-08-11T05:17:39.847Z,14.3
2017-08-11T05:18:47.324Z,14.3
2017-08-11T05:19:54.805Z,14.3
2017-08-11T05:21:02.297Z,14.3
2017-08-11T05:22:09.772Z,14.3
2017-08-11T05:23:17.571Z,14.3
2017-08-11T05:24:25.062Z,14.3
2017-08-11T05:25:32.537Z,14.3
2017-08-11T05:26:40.022Z,14.2
2017-08-11T05:27:47.520Z,14.2
2017-08-11T05:28:55.301Z,14.3
2017-08-11T05:30:02.461Z,14.3
2017-08-11T05:31:09.938Z,14.3
2017-08-11T05:32:17.084Z,14.4
2017-08-11T05:33:24.564Z,14.4
2017-08-11T05:34:32.347Z,14.4
2017-08-11T05:35:39.824Z,14.4
2017-08-11T05:36:46.975Z,14.4
2017-08-11T05:37:54.460Z,14.4
2017-08-11T05:39:01.937Z,14.4
2017-08-11T05:40:09.678Z,14.4
2017-08-11T05:41:17.159Z,14.4
2017-08-11T05:42:24.729Z,14.4
2017-08-11T05:43:32.208Z,14.4
2017-08-11T05:44:39.364Z,14.4
2017-08-11T05:45:46.850Z,14.4
2017-08-11T05:46:54.640Z,14.4
2017-08-11T05:48:02.133Z,14.4
2017-08-11T05:49:09.621Z,14.4
2017-08-11T05:50:17.090Z,14.4
2017-08-11T05:51:24.560Z,14.4
2017-08-11T05:52:32.339Z,14.4
2017-08-11T05:53:39.816Z,14.4
2017-08-11T05:54:47.295Z,14.3
2017-08-11T05:55:54.775Z,14.3
2017-08-11T05:57:02.253Z,14.3
2017-08-11T05:58:10.035Z,14.3
2017-08-11T05:59:17.528Z,14.3
2017-08-11T06:00:24.670Z,14.3
2017-08-11T06:01:32.160Z,14.3
2017-08-11T06:02:39.636Z,14.3
2017-08-11T06:03:47.428Z,14.2
2017-08-11T06:04:54.911Z,14.2
2017-08-11T06:06:02.063Z,14.2
2017-08-11T06:07:09.210Z,14.2
2017-08-11T06:08:16.700Z,14.2
2017-08-11T06:09:24.477Z,14.2
2017-08-11T06:10:31.977Z,14.2
2017-08-11T06:11:39.460Z,14.2
2017-08-11T06:12:46.614Z,14.2
2017-08-11T06:13:53.773Z,14.2
2017-08-11T06:15:01.222Z,14.3
2017-08-11T06:16:08.704Z,14.3
2017-08-11T06:17:16.179Z,14.2
2017-08-11T06:18:23.682Z,14.2
2017-08-11T06:19:31.161Z,14.2
2017-08-11T06:20:38.953Z,14.2
2017-08-11T06:21:46.435Z,14.2
2017-08-11T06:22:53.940Z,14.1
2017-08-11T06:24:01.418Z,14.1
2017-08-11T06:25:08.928Z,14
2017-08-11T06:26:16.705Z,14
2017-08-11T06:27:24.188Z,14
2017-08-11T06:28:31.665Z,14
2017-08-11T06:29:38.809Z,14.1
2017-08-11T06:30:46.290Z,14.1
2017-08-11T06:31:54.073Z,14.1
2017-08-11T06:33:01.555Z,14.1
2017-08-11T06:34:08.698Z,14.1
2017-08-11T06:35:16.176Z,14.1
2017-08-11T06:36:23.318Z,14.1
2017-08-11T06:37:32.334Z,14.1
2017-08-11T06:38:39.821Z,14.1
2017-08-11T06:39:47.316Z,14.1
2017-08-11T06:40:54.788Z,14.1
2017-08-11T06:42:01.975Z,14.1
2017-08-11T06:43:09.754Z,14.2
2017-08-11T06:44:17.234Z,14.2
2017-08-11T06:45:24.719Z,14.2
2017-08-11T06:46:32.208Z,14.2
2017-08-11T06:47:39.682Z,14.2
2017-08-11T06:48:47.149Z,14.2
2017-08-11T06:49:54.625Z,14.2
2017-08-11T06:51:02.110Z,14.1
2017-08-11T06:52:09.597Z,14.1
2017-08-11T06:53:17.074Z,14.1
2017-08-11T06:54:24.851Z,14.1
2017-08-11T06:55:32.326Z,14.1
2017-08-11T06:56:39.808Z,14.1
2017-08-11T06:57:47.199Z,14
2017-08-11T06:58:54.676Z,14
2017-08-11T07:00:02.128Z,14
2017-08-11T07:01:09.623Z,14
2017-08-11T07:02:17.098Z,14
2017-08-11T07:03:24.574Z,14
2017-08-11T07:04:46.636Z,14.1
2017-08-11T07:05:54.413Z,14.1
2017-08-11T07:07:01.560Z,14.1
2017-08-11T07:08:09.035Z,14.1
2017-08-11T07:09:16.523Z,14.1
2017-08-11T07:10:23.672Z,14.2
2017-08-11T07:11:32.043Z,14.2
2017-08-11T07:12:39.522Z,14.2
2017-08-11T07:13:47.015Z,14.3
2017-08-11T07:14:54.170Z,14.3
2017-08-11T07:16:01.654Z,14.3
2017-08-11T07:17:09.128Z,14.4
2017-08-11T07:18:16.575Z,14.4
2017-08-11T07:19:23.723Z,14.4
2017-08-11T07:20:31.204Z,14.4
2017-08-11T07:21:38.684Z,14.5
2017-08-11T07:22:46.162Z,14.5
2017-08-11T07:23:53.945Z,14.5
2017-08-11T07:25:01.423Z,14.6
2017-08-11T07:26:08.578Z,14.5
2017-08-11T07:27:16.054Z,14.6
2017-08-11T07:28:23.544Z,14.6
2017-08-11T07:29:31.321Z,14.5
2017-08-11T07:30:38.470Z,14.5
2017-08-11T07:31:45.943Z,14.5
2017-08-11T07:32:53.418Z,14.5
2017-08-11T07:34:00.901Z,14.5
2017-08-11T07:35:08.394Z,14.4
2017-08-11T07:36:15.879Z,14.4
2017-08-11T07:37:23.358Z,14.4
2017-08-11T07:38:30.516Z,14.4
2017-08-11T07:39:38.294Z,14.4
2017-08-11T07:40:45.774Z,14.4
2017-08-11T07:41:53.245Z,14.4
2017-08-11T07:43:00.726Z,14.4
2017-08-11T07:44:08.205Z,14.5
2017-08-11T07:45:15.986Z,14.5
2017-08-11T07:46:23.138Z,14.4
2017-08-11T07:47:30.620Z,14.4
2017-08-11T07:48:38.093Z,14.4
2017-08-11T07:49:45.572Z,14.4
2017-08-11T07:50:53.349Z,14.4
2017-08-11T07:52:00.850Z,14.4
2017-08-11T07:53:08.001Z,14.5
2017-08-11T07:54:15.156Z,14.5
2017-08-11T07:55:22.638Z,14.5
2017-08-11T07:56:30.426Z,14.5
2017-08-11T07:57:37.898Z,14.5
2017-08-11T07:58:45.374Z,14.5
2017-08-11T07:59:52.537Z,14.5
2017-08-11T08:01:00.023Z,14.5
2017-08-11T08:02:07.512Z,14.5
2017-08-11T08:03:14.991Z,14.5
2017-08-11T08:04:22.460Z,14.5
2017-08-11T08:05:30.063Z,14.5
2017-08-11T08:06:37.548Z,14.5
2017-08-11T08:07:45.342Z,14.5
2017-08-11T08:08:53.841Z,14.5
2017-08-11T08:10:01.319Z,14.4
2017-08-11T08:11:08.812Z,14.5
2017-08-11T08:12:16.321Z,14.5
2017-08-11T08:13:24.099Z,14.5
2017-08-11T08:14:31.579Z,14.4
2017-08-11T08:15:39.059Z,14.4
2017-08-11T08:16:46.545Z,14.5
2017-08-11T08:17:54.038Z,14.4
2017-08-11T08:19:01.766Z,14.5
2017-08-11T08:20:09.245Z,14.5
2017-08-11T08:21:16.387Z,14.5
2017-08-11T08:22:23.867Z,14.5
2017-08-11T08:23:31.343Z,14.6
2017-08-11T08:24:39.079Z,14.6
2017-08-11T08:25:46.226Z,14.6
2017-08-11T08:26:53.702Z,14.6
2017-08-11T08:28:01.190Z,14.7
2017-08-11T08:29:08.663Z,14.7
2017-08-11T08:30:16.444Z,14.7
2017-08-11T08:31:23.925Z,14.7
2017-08-11T08:32:31.091Z,14.8
2017-08-11T08:33:38.562Z,14.8
2017-08-11T08:34:46.044Z,14.8
2017-08-11T08:35:53.490Z,14.8
2017-08-11T08:37:00.976Z,14.8
2017-08-11T08:38:08.455Z,14.8
2017-08-11T08:39:15.938Z,14.8
2017-08-11T08:40:23.421Z,14.8
2017-08-11T08:41:31.192Z,14.8
2017-08-11T08:42:38.664Z,14.8
2017-08-11T08:43:46.146Z,14.8
2017-08-11T08:44:53.625Z,14.7
2017-08-11T08:46:00.444Z,14.7
2017-08-11T08:47:08.197Z,14.7
2017-08-11T08:48:15.672Z,14.7
2017-08-11T08:49:24.213Z,14.8
2017-08-11T08:50:31.695Z,14.8
2017-08-11T08:51:39.178Z,14.8
2017-08-11T08:52:46.972Z,14.9
2017-08-11T08:53:54.121Z,15
2017-08-11T08:55:01.601Z,14.9
2017-08-11T08:56:09.077Z,15
2017-08-11T08:57:16.559Z,15
2017-08-11T08:58:24.341Z,15.1
2017-08-11T08:59:31.820Z,15.1
2017-08-11T09:00:39.300Z,15.1
2017-08-11T09:01:46.784Z,15.1
2017-08-11T09:02:54.263Z,15.2
2017-08-11T09:04:01.739Z,15.2
2017-08-11T09:05:08.891Z,15.2
2017-08-11T09:06:16.382Z,15.2
2017-08-11T09:07:24.158Z,15.2
2017-08-11T09:08:31.655Z,15.2
2017-08-11T09:09:38.810Z,15.2
2017-08-11T09:10:46.315Z,15.2
2017-08-11T09:11:53.796Z,15.2
2017-08-11T09:13:01.246Z,15.2
2017-08-11T09:14:08.734Z,15.2
2017-08-11T09:15:16.208Z,15.2
2017-08-11T09:16:23.696Z,15.2
2017-08-11T09:17:31.190Z,15.2
2017-08-11T09:18:38.967Z,15.2
2017-08-11T09:19:46.451Z,15.3
2017-08-11T09:20:53.929Z,15.2
2017-08-11T09:22:01.078Z,15.3
2017-08-11T09:23:08.557Z,15.3
2017-08-11T09:24:16.031Z,15.3
2017-08-11T09:25:23.530Z,15.4
2017-08-11T09:26:31.161Z,15.5
2017-08-11T09:27:38.651Z,15.5
2017-08-11T09:28:46.439Z,15.6
2017-08-11T09:29:53.928Z,15.6
2017-08-11T09:31:01.411Z,15.6
2017-08-11T09:32:08.884Z,15.6
2017-08-11T09:33:16.366Z,15.5
2017-08-11T09:34:23.165Z,15.6
2017-08-11T09:35:30.307Z,15.6
2017-08-11T09:36:37.781Z,15.6
2017-08-11T09:37:45.274Z,15.6
2017-08-11T09:38:52.754Z,15.6
2017-08-11T09:40:00.231Z,15.6
2017-08-11T09:41:07.712Z,15.7
2017-08-11T09:42:15.192Z,15.7
2017-08-11T09:43:22.674Z,15.7
2017-08-11T09:44:30.151Z,15.7
2017-08-11T09:45:37.596Z,15.7
2017-08-11T09:46:45.075Z,15.8
2017-08-11T09:47:52.562Z,15.8
2017-08-11T09:49:00.031Z,15.9
2017-08-11T09:50:07.511Z,16
2017-08-11T09:51:15.292Z,16
2017-08-11T09:52:22.782Z,15.9
2017-08-11T09:53:30.261Z,16
2017-08-11T09:54:37.738Z,16
2017-08-11T09:55:45.223Z,16
2017-08-11T09:56:52.699Z,16.1
2017-08-11T09:58:00.181Z,16.1
2017-08-11T09:59:07.669Z,16
2017-08-11T10:00:15.143Z,16
2017-08-11T10:01:22.628Z,16
2017-08-11T10:02:30.400Z,16
2017-08-11T10:03:37.876Z,16.1
2017-08-11T10:04:45.353Z,16.3
2017-08-11T10:05:52.834Z,16.4
2017-08-11T10:07:00.331Z,16.5
2017-08-11T10:08:07.774Z,16.5
2017-08-11T10:09:15.258Z,16.6
2017-08-11T10:10:22.884Z,16.5
2017-08-11T10:11:30.397Z,16.5
2017-08-11T10:12:37.873Z,16.5
2017-08-11T10:13:45.329Z,16.4
2017-08-11T10:14:52.806Z,16.4
2017-08-11T10:16:00.286Z,16.5
2017-08-11T10:17:07.768Z,16.5
2017-08-11T10:18:15.251Z,16.5
2017-08-11T10:19:22.975Z,16.5
2017-08-11T10:20:30.469Z,16.4
2017-08-11T10:21:37.948Z,16.4
2017-08-11T10:22:45.426Z,16.4
2017-08-11T10:23:52.904Z,16.4
2017-08-11T10:25:00.352Z,16.4
2017-08-11T10:26:07.834Z,16.4
2017-08-11T10:27:15.310Z,16.3
2017-08-11T10:28:22.789Z,16.3
2017-08-11T10:29:29.935Z,16.3
2017-08-11T10:30:37.719Z,16.3
2017-08-11T10:31:45.204Z,16.4
2017-08-11T10:32:52.692Z,16.4
2017-08-11T10:34:00.172Z,16.5
2017-08-11T10:35:07.654Z,16.5
2017-08-11T10:36:15.434Z,16.5
2017-08-11T10:37:22.910Z,16.5
2017-08-11T10:38:30.062Z,16.5
2017-08-11T10:39:37.543Z,16.5
2017-08-11T10:40:45.263Z,16.4
2017-08-11T10:41:52.711Z,16.3
2017-08-11T10:42:59.857Z,16.4
2017-08-11T10:44:07.345Z,16.5
2017-08-11T10:45:14.823Z,16.5
2017-08-11T10:46:22.306Z,16.5
2017-08-11T10:47:30.086Z,16.5
2017-08-11T10:48:37.570Z,16.5
2017-08-11T10:49:45.052Z,16.5
2017-08-11T10:50:52.531Z,16.5
2017-08-11T10:52:00.017Z,16.4
2017-08-11T10:53:07.796Z,16.3
2017-08-11T10:54:14.976Z,16.4
2017-08-11T10:55:22.128Z,16.5
2017-08-11T10:56:29.610Z,16.4
2017-08-11T10:57:37.090Z,16.4
2017-08-11T10:58:44.578Z,16.5
2017-08-11T10:59:52.055Z,16.5
2017-08-11T11:00:59.532Z,16.5
2017-08-11T11:02:07.014Z,16.5
2017-08-11T11:03:14.493Z,16.5
2017-08-11T11:04:21.612Z,16.6
2017-08-11T11:05:28.774Z,16.6
2017-08-11T11:06:36.268Z,16.6
2017-08-11T11:07:43.415Z,16.6
2017-08-11T11:08:50.571Z,16.7
2017-08-11T11:09:57.690Z,16.6
2017-08-11T11:11:05.174Z,16.6
2017-08-11T11:12:12.327Z,16.6
2017-08-11T11:13:19.807Z,16.6
2017-08-11T11:14:27.284Z,16.7
2017-08-11T11:15:35.068Z,16.7
2017-08-11T11:16:42.222Z,16.8
2017-08-11T11:17:49.703Z,16.8
2017-08-11T11:18:57.182Z,16.8
2017-08-11T11:20:04.659Z,16.8
2017-08-11T11:21:11.496Z,16.8
2017-08-11T11:22:18.974Z,16.9
2017-08-11T11:23:26.459Z,16.8
2017-08-11T11:24:33.948Z,16.8
2017-08-11T11:25:41.723Z,16.8
2017-08-11T11:26:49.207Z,16.8
2017-08-11T11:27:56.534Z,16.7
2017-08-11T11:29:04.026Z,16.6
2017-08-11T11:30:11.506Z,16.5
2017-08-11T11:31:19.294Z,16.5
2017-08-11T11:32:26.779Z,16.6
2017-08-11T11:33:34.263Z,16.6
2017-08-11T11:34:41.746Z,16.6
2017-08-11T11:35:49.228Z,16.7
2017-08-11T11:36:57.006Z,16.6
2017-08-11T11:38:04.484Z,16.5
2017-08-11T11:39:11.963Z,16.5
2017-08-11T11:40:19.444Z,16.5
2017-08-11T11:41:26.927Z,16.4
2017-08-11T11:42:34.728Z,16.4
2017-08-11T11:43:42.206Z,16.4
2017-08-11T11:44:49.679Z,16.3
2017-08-11T11:45:57.163Z,16.3
2017-08-11T11:47:04.308Z,16.3
2017-08-11T11:48:11.791Z,16.3
2017-08-11T11:49:19.325Z,16.2
2017-08-11T11:50:26.801Z,16.2
2017-08-11T11:51:34.289Z,16.2
2017-08-11T11:52:41.772Z,16.2
2017-08-11T11:53:49.559Z,16.3
2017-08-11T11:54:57.040Z,16.3
2017-08-11T11:56:04.526Z,16.3
2017-08-11T11:57:12.006Z,16.3
2017-08-11T11:58:19.487Z,16.3
2017-08-11T11:59:27.262Z,16.3
2017-08-11T12:00:34.419Z,16.3
2017-08-11T12:01:41.901Z,16.3
2017-08-11T12:02:49.049Z,16.4
2017-08-11T12:03:56.198Z,16.4
2017-08-11T12:05:03.680Z,16.4
2017-08-11T12:06:11.167Z,16.3
2017-08-11T12:07:18.694Z,16.3
2017-08-11T12:08:26.176Z,16.3
2017-08-11T12:09:33.659Z,16.4
2017-08-11T12:10:41.128Z,16.3
2017-08-11T12:11:48.631Z,16.3
2017-08-11T12:12:56.125Z,16.3
2017-08-11T12:14:03.611Z,16.3
2017-08-11T12:15:10.769Z,16.3
2017-08-11T12:16:18.547Z,16.3
2017-08-11T12:17:26.026Z,16.2
2017-08-11T12:18:33.505Z,16.2
2017-08-11T12:19:40.983Z,16.2
2017-08-11T12:20:48.460Z,16.3
2017-08-11T12:21:56.492Z,16.3
2017-08-11T12:23:03.973Z,16.2
2017-08-11T12:24:11.454Z,16.2
2017-08-11T12:25:18.835Z,16.2
2017-08-11T12:26:26.498Z,16.2
2017-08-11T12:27:34.200Z,16.2
2017-08-11T12:28:41.677Z,16.1
2017-08-11T12:29:49.175Z,16.1
2017-08-11T12:30:56.652Z,16.1
2017-08-11T12:32:04.129Z,16.1
2017-08-11T12:33:11.585Z,16.2
2017-08-11T12:34:18.735Z,16.2
2017-08-11T12:35:26.219Z,16.2
2017-08-11T12:36:33.699Z,16.2
2017-08-11T12:37:41.176Z,16.2
2017-08-11T12:38:48.971Z,16.3
2017-08-11T12:39:56.448Z,16.3
2017-08-11T12:41:04.557Z,16.3
2017-08-11T12:42:12.035Z,16.3
2017-08-11T12:43:19.510Z,16.3
2017-08-11T12:44:27.529Z,16.4
2017-08-11T12:45:35.012Z,16.4
2017-08-11T12:46:42.726Z,16.4
2017-08-11T12:47:50.203Z,16.5
2017-08-11T12:48:57.716Z,16.5
2017-08-11T12:50:05.170Z,16.5
2017-08-11T12:51:12.321Z,16.6
2017-08-11T12:52:19.500Z,16.7
2017-08-11T12:53:26.652Z,16.7
2017-08-11T12:54:34.132Z,16.7
2017-08-11T12:55:41.913Z,16.7
2017-08-11T12:56:49.061Z,16.7
2017-08-11T12:57:56.542Z,16.7
2017-08-11T12:59:04.027Z,16.7
2017-08-11T13:00:11.514Z,16.7
2017-08-11T13:01:19.491Z,16.8
2017-08-11T13:02:26.970Z,16.8
2017-08-11T13:03:34.124Z,16.7
2017-08-11T13:04:41.275Z,16.8
2017-08-11T13:05:48.612Z,16.8
2017-08-11T13:06:56.443Z,16.8
2017-08-11T13:08:03.956Z,16.8
2017-08-11T13:09:11.115Z,16.8
2017-08-11T13:10:18.597Z,16.7
2017-08-11T13:11:26.076Z,16.8
2017-08-11T13:12:33.154Z,16.7
2017-08-11T13:13:40.638Z,16.6
2017-08-11T13:14:48.120Z,16.6
2017-08-11T13:15:55.618Z,16.5
2017-08-11T13:17:03.100Z,16.5
2017-08-11T13:18:10.885Z,16.5
2017-08-11T13:19:18.370Z,16.6
2017-08-11T13:20:25.851Z,16.6
2017-08-11T13:21:33.331Z,16.6
2017-08-11T13:22:40.810Z,16.7
2017-08-11T13:23:48.589Z,16.6
2017-08-11T13:24:55.772Z,16.5
2017-08-11T13:26:03.271Z,16.6
2017-08-11T13:27:10.769Z,16.6
2017-08-11T13:28:18.249Z,16.6
2017-08-11T13:29:25.697Z,16.6
2017-08-11T13:30:33.194Z,16.6
2017-08-11T13:31:40.679Z,16.6
2017-08-11T13:32:48.159Z,16.6
2017-08-11T13:33:55.644Z,16.7
2017-08-11T13:35:03.427Z,16.7
2017-08-11T13:36:10.918Z,16.7
2017-08-11T13:37:18.398Z,16.7
2017-08-11T13:38:25.874Z,16.7
2017-08-11T13:39:33.024Z,16.7
2017-08-11T13:40:40.811Z,16.6
2017-08-11T13:41:47.639Z,16.6
2017-08-11T13:42:55.119Z,16.5
2017-08-11T13:44:02.610Z,16.5
2017-08-11T13:45:10.094Z,16.4
2017-08-11T13:46:17.828Z,16.4
2017-08-11T13:47:25.310Z,16.4
2017-08-11T13:48:32.801Z,16.4
2017-08-11T13:49:40.273Z,16.3
2017-08-11T13:50:47.754Z,16.3
2017-08-11T13:51:55.151Z,16.3
2017-08-11T13:53:02.632Z,16.3
2017-08-11T13:54:10.111Z,16.3
2017-08-11T13:55:17.593Z,16.3
2017-08-11T13:56:25.117Z,16.3
2017-08-11T13:57:32.251Z,16.3
2017-08-11T13:58:39.738Z,16.4
2017-08-11T13:59:47.219Z,16.4
2017-08-11T14:00:54.055Z,16.3
2017-08-11T14:02:02.506Z,16.3
2017-08-11T14:03:09.982Z,16.3
2017-08-11T14:04:17.459Z,16.3
2017-08-11T14:05:24.947Z,16.3
2017-08-11T14:06:32.432Z,16.3
2017-08-11T14:07:39.916Z,16.3
2017-08-11T14:08:47.698Z,16.3
2017-08-11T14:09:55.194Z,16.3
2017-08-11T14:11:02.673Z,16.3
2017-08-11T14:12:09.495Z,16.2
2017-08-11T14:13:16.973Z,16.2
2017-08-11T14:14:24.997Z,16.3
2017-08-11T14:15:32.485Z,16.2
2017-08-11T14:16:39.967Z,16.2
2017-08-11T14:17:47.115Z,16.2
2017-08-11T14:18:54.596Z,16.1
2017-08-11T14:20:02.372Z,16.1
2017-08-11T14:21:09.525Z,16.2
2017-08-11T14:22:17.005Z,16.2
2017-08-11T14:23:24.486Z,16.2
2017-08-11T14:24:31.971Z,16.3
2017-08-11T14:25:39.749Z,16.2
2017-08-11T14:26:47.223Z,16.2
2017-08-11T14:27:54.701Z,16.3
2017-08-11T14:29:02.190Z,16.3
2017-08-11T14:30:09.361Z,16.3
2017-08-11T14:31:16.865Z,16.3
2017-08-11T14:32:24.014Z,16.3
2017-08-11T14:33:31.162Z,16.3
2017-08-11T14:34:38.650Z,16.3
2017-08-11T14:35:46.134Z,16.2
2017-08-11T14:36:53.917Z,16.2
2017-08-11T14:38:01.395Z,16.2
2017-08-11T14:39:08.885Z,16.3
2017-08-11T14:40:16.362Z,16.2
2017-08-11T14:41:23.857Z,16.2
2017-08-11T14:42:31.645Z,16.2
2017-08-11T14:43:39.128Z,16.2
2017-08-11T14:44:46.613Z,16.2
2017-08-11T14:45:54.097Z,16.1
2017-08-11T14:47:01.583Z,16.1
2017-08-11T14:48:09.361Z,16
2017-08-11T14:49:16.848Z,16
2017-08-11T14:50:24.335Z,16
2017-08-11T14:51:31.814Z,16
2017-08-11T14:52:39.304Z,16
2017-08-11T14:53:47.087Z,15.9
2017-08-11T14:54:54.567Z,15.9
2017-08-11T14:56:01.728Z,15.9
2017-08-11T14:57:08.881Z,15.9
2017-08-11T14:58:17.138Z,15.8
2017-08-11T14:59:24.926Z,15.8
2017-08-11T15:00:32.088Z,15.8